sensor_id;sensor_type;location;lat;lon;timestamp;P1;durP1;ratioP1;P2;durP2;ratioP2
27957;SDS011;15295;42.658;23.374;2022-12-01T00:02:16;3.80;;;0.80;;
27957;SDS011;15295;42.658;23.374;2022-12-01T00:04:42;0.88;;;0.70;;
27957;SDS011;15295;42.658;23.374;2022-12-01T00:07:07;1.63;;;0.70;;
27957;SDS011;15295;42.658;23.374;2022-12-01T00:09:34;2.22;;;0.80;;
27957;SDS011;15295;42.658;23.374;2022-12-01T00:14:43;1.23;;;0.70;;
27957;SDS011;15295;42.658;23.374;2022-12-01T00:17:18;1.30;;;0.70;;
27957;SDS011;15295;42.658;23.374;2022-12-01T00:19:44;2.85;;;0.80;;
27957;SDS011;15295;42.658;23.374;2022-12-01T00:22:10;1.75;;;0.80;;
27957;SDS011;15295;42.658;23.374;2022-12-01T00:24:35;1.77;;;0.60;;
27957;SDS011;15295;42.658;23.374;2022-12-01T00:27:00;1.02;;;0.63;;
27957;SDS011;15295;42.658;23.374;2022-12-01T00:29:27;1.35;;;0.75;;
27957;SDS011;15295;42.658;23.374;2022-12-01T00:31:52;0.95;;;0.70;;
27957;SDS011;15295;42.658;23.374;2022-12-01T00:34:21;1.30;;;0.85;;
27957;SDS011;15295;42.658;23.374;2022-12-01T00:36:48;1.92;;;0.90;;
27957;SDS011;15295;42.658;23.374;2022-12-01T00:39:14;1.70;;;0.75;;
27957;SDS011;15295;42.658;23.374;2022-12-01T00:41:39;1.63;;;0.65;;
27957;SDS011;15295;42.658;23.374;2022-12-01T00:44:04;2.40;;;1.35;;
27957;SDS011;15295;42.658;23.374;2022-12-01T00:46:30;1.60;;;0.80;;
27957;SDS011;15295;42.658;23.374;2022-12-01T00:48:55;1.33;;;0.80;;
27957;SDS011;15295;42.658;23.374;2022-12-01T00:51:24;0.95;;;0.80;;
27957;SDS011;15295;42.658;23.374;2022-12-01T00:53:49;1.35;;;0.75;;
27957;SDS011;15295;42.658;23.374;2022-12-01T00:56:14;0.88;;;0.60;;
27957;SDS011;15295;42.658;23.374;2022-12-01T00:58:40;3.38;;;0.80;;
27957;SDS011;15295;42.658;23.374;2022-12-01T01:01:05;1.60;;;1.13;;
27957;SDS011;15295;42.658;23.374;2022-12-01T01:03:31;0.70;;;0.70;;
27957;SDS011;15295;42.658;23.374;2022-12-01T01:06:02;2.17;;;0.82;;
27957;SDS011;15295;42.658;23.374;2022-12-01T01:08:29;1.40;;;0.90;;
27957;SDS011;15295;42.658;23.374;2022-12-01T01:11:03;1.20;;;1.00;;
27957;SDS011;15295;42.658;23.374;2022-12-01T01:13:29;1.45;;;0.88;;
27957;SDS011;15295;42.658;23.374;2022-12-01T01:15:59;1.83;;;0.80;;
27957;SDS011;15295;42.658;23.374;2022-12-01T01:18:26;1.23;;;0.63;;
27957;SDS011;15295;42.658;23.374;2022-12-01T01:20:57;1.27;;;0.85;;
27957;SDS011;15295;42.658;23.374;2022-12-01T01:23:24;1.38;;;0.75;;
27957;SDS011;15295;42.658;23.374;2022-12-01T01:25:50;1.40;;;0.90;;
27957;SDS011;15295;42.658;23.374;2022-12-01T01:28:16;1.27;;;0.80;;
27957;SDS011;15295;42.658;23.374;2022-12-01T01:30:45;1.42;;;0.80;;
27957;SDS011;15295;42.658;23.374;2022-12-01T01:33:11;1.58;;;0.90;;
27957;SDS011;15295;42.658;23.374;2022-12-01T01:35:36;2.28;;;0.75;;
27957;SDS011;15295;42.658;23.374;2022-12-01T01:38:02;0.88;;;0.70;;
27957;SDS011;15295;42.658;23.374;2022-12-01T01:40:28;0.80;;;0.60;;
27957;SDS011;15295;42.658;23.374;2022-12-01T01:42:53;1.00;;;0.55;;
27957;SDS011;15295;42.658;23.374;2022-12-01T01:45:23;1.02;;;0.60;;
27957;SDS011;15295;42.658;23.374;2022-12-01T01:47:52;1.95;;;0.60;;
27957;SDS011;15295;42.658;23.374;2022-12-01T01:50:19;2.97;;;0.63;;
27957;SDS011;15295;42.658;23.374;2022-12-01T01:52:50;0.95;;;0.65;;
27957;SDS011;15295;42.658;23.374;2022-12-01T01:55:28;0.88;;;0.50;;
27957;SDS011;15295;42.658;23.374;2022-12-01T01:57:55;1.48;;;0.80;;
27957;SDS011;15295;42.658;23.374;2022-12-01T02:00:21;1.10;;;0.70;;
27957;SDS011;15295;42.658;23.374;2022-12-01T02:02:48;1.60;;;0.70;;
27957;SDS011;15295;42.658;23.374;2022-12-01T02:07:45;0.60;;;0.40;;
27957;SDS011;15295;42.658;23.374;2022-12-01T02:10:12;3.67;;;0.60;;
27957;SDS011;15295;42.658;23.374;2022-12-01T02:15:43;1.13;;;0.60;;
27957;SDS011;15295;42.658;23.374;2022-12-01T02:18:46;0.93;;;0.60;;
27957;SDS011;15295;42.658;23.374;2022-12-01T02:21:28;1.50;;;0.55;;
27957;SDS011;15295;42.658;23.374;2022-12-01T02:27:07;0.43;;;0.40;;
27957;SDS011;15295;42.658;23.374;2022-12-01T02:32:56;1.10;;;0.60;;
27957;SDS011;15295;42.658;23.374;2022-12-01T02:38:53;1.23;;;0.50;;
27957;SDS011;15295;42.658;23.374;2022-12-01T02:41:27;0.50;;;0.47;;
27957;SDS011;15295;42.658;23.374;2022-12-01T02:46:48;0.93;;;0.65;;
27957;SDS011;15295;42.658;23.374;2022-12-01T02:49:21;1.10;;;0.60;;
27957;SDS011;15295;42.658;23.374;2022-12-01T02:51:53;1.63;;;0.70;;
27957;SDS011;15295;42.658;23.374;2022-12-01T02:54:19;1.05;;;0.60;;
27957;SDS011;15295;42.658;23.374;2022-12-01T02:56:49;1.13;;;0.70;;
27957;SDS011;15295;42.658;23.374;2022-12-01T02:59:16;1.52;;;0.88;;
27957;SDS011;15295;42.658;23.374;2022-12-01T03:01:44;0.98;;;0.60;;
27957;SDS011;15295;42.658;23.374;2022-12-01T03:18:40;0.77;;;0.60;;
27957;SDS011;15295;42.658;23.374;2022-12-01T03:21:26;0.85;;;0.43;;
27957;SDS011;15295;42.658;23.374;2022-12-01T03:24:19;1.02;;;0.30;;
27957;SDS011;15295;42.658;23.374;2022-12-01T03:26:48;0.50;;;0.40;;
27957;SDS011;15295;42.658;23.374;2022-12-01T03:29:20;1.50;;;0.40;;
27957;SDS011;15295;42.658;23.374;2022-12-01T03:31:53;1.05;;;0.40;;
27957;SDS011;15295;42.658;23.374;2022-12-01T03:36:54;0.50;;;0.30;;
27957;SDS011;15295;42.658;23.374;2022-12-01T03:39:24;3.53;;;0.65;;
27957;SDS011;15295;42.658;23.374;2022-12-01T03:42:19;0.57;;;0.47;;
27957;SDS011;15295;42.658;23.374;2022-12-01T03:44:48;0.70;;;0.35;;
27957;SDS011;15295;42.658;23.374;2022-12-01T03:47:24;0.70;;;0.50;;
27957;SDS011;15295;42.658;23.374;2022-12-01T03:49:53;2.67;;;0.60;;
27957;SDS011;15295;42.658;23.374;2022-12-01T03:55:26;1.13;;;0.85;;
27957;SDS011;15295;42.658;23.374;2022-12-01T03:57:57;0.60;;;0.55;;
27957;SDS011;15295;42.658;23.374;2022-12-01T04:00:28;1.13;;;0.75;;
27957;SDS011;15295;42.658;23.374;2022-12-01T04:02:58;2.03;;;0.70;;
27957;SDS011;15295;42.658;23.374;2022-12-01T04:05:27;1.48;;;0.75;;
27957;SDS011;15295;42.658;23.374;2022-12-01T04:07:52;1.45;;;0.70;;
27957;SDS011;15295;42.658;23.374;2022-12-01T04:10:18;2.33;;;0.60;;
27957;SDS011;15295;42.658;23.374;2022-12-01T04:12:43;2.42;;;0.70;;
27957;SDS011;15295;42.658;23.374;2022-12-01T04:15:10;2.65;;;0.68;;
27957;SDS011;15295;42.658;23.374;2022-12-01T04:17:37;1.60;;;0.82;;
27957;SDS011;15295;42.658;23.374;2022-12-01T04:20:04;2.17;;;0.65;;
27957;SDS011;15295;42.658;23.374;2022-12-01T04:22:32;1.08;;;0.70;;
27957;SDS011;15295;42.658;23.374;2022-12-01T04:24:57;0.80;;;0.60;;
27957;SDS011;15295;42.658;23.374;2022-12-01T04:27:23;0.90;;;0.70;;
27957;SDS011;15295;42.658;23.374;2022-12-01T04:29:48;1.08;;;0.80;;
27957;SDS011;15295;42.658;23.374;2022-12-01T04:32:14;3.00;;;0.80;;
27957;SDS011;15295;42.658;23.374;2022-12-01T04:34:40;0.80;;;0.73;;
27957;SDS011;15295;42.658;23.374;2022-12-01T04:37:05;2.00;;;0.95;;
27957;SDS011;15295;42.658;23.374;2022-12-01T04:39:32;2.40;;;0.70;;
27957;SDS011;15295;42.658;23.374;2022-12-01T04:41:58;1.10;;;0.73;;
27957;SDS011;15295;42.658;23.374;2022-12-01T04:44:23;1.20;;;0.80;;
27957;SDS011;15295;42.658;23.374;2022-12-01T04:46:52;0.85;;;0.68;;
27957;SDS011;15295;42.658;23.374;2022-12-01T04:49:18;1.55;;;0.80;;
27957;SDS011;15295;42.658;23.374;2022-12-01T04:51:44;1.33;;;0.90;;
27957;SDS011;15295;42.658;23.374;2022-12-01T04:54:12;1.33;;;0.90;;
27957;SDS011;15295;42.658;23.374;2022-12-01T04:56:38;1.30;;;0.82;;
27957;SDS011;15295;42.658;23.374;2022-12-01T04:59:03;2.65;;;1.00;;
27957;SDS011;15295;42.658;23.374;2022-12-01T05:01:28;3.20;;;0.90;;
27957;SDS011;15295;42.658;23.374;2022-12-01T05:03:56;1.50;;;1.00;;
27957;SDS011;15295;42.658;23.374;2022-12-01T05:06:22;1.77;;;0.98;;
27957;SDS011;15295;42.658;23.374;2022-12-01T05:08:50;2.90;;;1.20;;
27957;SDS011;15295;42.658;23.374;2022-12-01T05:11:18;3.88;;;1.00;;
27957;SDS011;15295;42.658;23.374;2022-12-01T05:13:44;1.75;;;0.95;;
27957;SDS011;15295;42.658;23.374;2022-12-01T05:16:15;1.17;;;0.85;;
27957;SDS011;15295;42.658;23.374;2022-12-01T05:18:41;4.22;;;1.20;;
27957;SDS011;15295;42.658;23.374;2022-12-01T05:21:07;2.55;;;0.90;;
27957;SDS011;15295;42.658;23.374;2022-12-01T05:23:36;1.48;;;0.90;;
27957;SDS011;15295;42.658;23.374;2022-12-01T05:26:03;1.58;;;0.90;;
27957;SDS011;15295;42.658;23.374;2022-12-01T05:28:30;2.58;;;1.13;;
27957;SDS011;15295;42.658;23.374;2022-12-01T05:30:57;2.97;;;1.10;;
27957;SDS011;15295;42.658;23.374;2022-12-01T05:33:22;2.63;;;1.33;;
27957;SDS011;15295;42.658;23.374;2022-12-01T05:35:49;3.65;;;1.02;;
27957;SDS011;15295;42.658;23.374;2022-12-01T05:38:15;2.25;;;1.05;;
27957;SDS011;15295;42.658;23.374;2022-12-01T05:40:41;3.15;;;2.05;;
27957;SDS011;15295;42.658;23.374;2022-12-01T05:43:07;5.82;;;2.70;;
27957;SDS011;15295;42.658;23.374;2022-12-01T05:45:33;4.25;;;2.10;;
27957;SDS011;15295;42.658;23.374;2022-12-01T05:47:59;3.95;;;2.10;;
27957;SDS011;15295;42.658;23.374;2022-12-01T05:50:27;7.22;;;3.03;;
27957;SDS011;15295;42.658;23.374;2022-12-01T05:52:53;5.40;;;1.60;;
27957;SDS011;15295;42.658;23.374;2022-12-01T05:55:20;5.28;;;3.10;;
27957;SDS011;15295;42.658;23.374;2022-12-01T05:57:45;3.95;;;2.10;;
27957;SDS011;15295;42.658;23.374;2022-12-01T06:00:11;3.42;;;1.60;;
27957;SDS011;15295;42.658;23.374;2022-12-01T06:02:38;5.15;;;2.30;;
27957;SDS011;15295;42.658;23.374;2022-12-01T06:05:07;3.50;;;1.50;;
27957;SDS011;15295;42.658;23.374;2022-12-01T06:07:33;4.80;;;2.47;;
27957;SDS011;15295;42.658;23.374;2022-12-01T06:09:59;5.50;;;2.08;;
27957;SDS011;15295;42.658;23.374;2022-12-01T06:12:26;5.63;;;2.75;;
27957;SDS011;15295;42.658;23.374;2022-12-01T06:14:51;4.85;;;2.30;;
27957;SDS011;15295;42.658;23.374;2022-12-01T06:17:17;11.82;;;4.30;;
27957;SDS011;15295;42.658;23.374;2022-12-01T06:19:42;7.95;;;3.33;;
27957;SDS011;15295;42.658;23.374;2022-12-01T06:22:08;5.00;;;1.98;;
27957;SDS011;15295;42.658;23.374;2022-12-01T06:24:33;4.28;;;2.17;;
27957;SDS011;15295;42.658;23.374;2022-12-01T06:26:59;5.03;;;2.25;;
27957;SDS011;15295;42.658;23.374;2022-12-01T06:29:24;6.88;;;3.28;;
27957;SDS011;15295;42.658;23.374;2022-12-01T06:31:50;5.90;;;2.55;;
27957;SDS011;15295;42.658;23.374;2022-12-01T06:34:22;8.13;;;3.25;;
27957;SDS011;15295;42.658;23.374;2022-12-01T06:36:57;8.02;;;2.72;;
27957;SDS011;15295;42.658;23.374;2022-12-01T06:39:33;7.68;;;2.35;;
27957;SDS011;15295;42.658;23.374;2022-12-01T06:41:59;6.78;;;2.25;;
27957;SDS011;15295;42.658;23.374;2022-12-01T06:44:27;3.80;;;1.77;;
27957;SDS011;15295;42.658;23.374;2022-12-01T06:46:53;3.78;;;1.60;;
27957;SDS011;15295;42.658;23.374;2022-12-01T06:49:20;3.78;;;1.63;;
27957;SDS011;15295;42.658;23.374;2022-12-01T06:51:45;4.28;;;1.45;;
27957;SDS011;15295;42.658;23.374;2022-12-01T06:54:11;3.75;;;1.95;;
27957;SDS011;15295;42.658;23.374;2022-12-01T06:56:37;6.05;;;2.50;;
27957;SDS011;15295;42.658;23.374;2022-12-01T06:59:03;6.22;;;3.05;;
27957;SDS011;15295;42.658;23.374;2022-12-01T07:01:28;6.82;;;2.42;;
27957;SDS011;15295;42.658;23.374;2022-12-01T07:03:54;9.65;;;3.53;;
27957;SDS011;15295;42.658;23.374;2022-12-01T07:06:19;7.03;;;3.45;;
27957;SDS011;15295;42.658;23.374;2022-12-01T07:08:45;5.70;;;1.50;;
27957;SDS011;15295;42.658;23.374;2022-12-01T07:11:11;3.25;;;1.30;;
27957;SDS011;15295;42.658;23.374;2022-12-01T07:13:38;2.97;;;1.80;;
27957;SDS011;15295;42.658;23.374;2022-12-01T07:16:05;2.97;;;1.60;;
27957;SDS011;15295;42.658;23.374;2022-12-01T07:18:31;4.03;;;2.22;;
27957;SDS011;15295;42.658;23.374;2022-12-01T07:21:00;4.32;;;1.80;;
27957;SDS011;15295;42.658;23.374;2022-12-01T07:23:28;2.42;;;1.40;;
27957;SDS011;15295;42.658;23.374;2022-12-01T07:26:00;3.92;;;1.48;;
27957;SDS011;15295;42.658;23.374;2022-12-01T07:28:27;2.20;;;1.20;;
27957;SDS011;15295;42.658;23.374;2022-12-01T07:30:52;2.30;;;1.42;;
27957;SDS011;15295;42.658;23.374;2022-12-01T07:33:18;6.15;;;2.60;;
27957;SDS011;15295;42.658;23.374;2022-12-01T07:35:43;4.35;;;1.58;;
27957;SDS011;15295;42.658;23.374;2022-12-01T07:38:10;4.10;;;1.77;;
27957;SDS011;15295;42.658;23.374;2022-12-01T07:40:36;4.88;;;1.50;;
27957;SDS011;15295;42.658;23.374;2022-12-01T07:43:01;3.03;;;1.40;;
27957;SDS011;15295;42.658;23.374;2022-12-01T07:45:27;3.08;;;1.30;;
27957;SDS011;15295;42.658;23.374;2022-12-01T07:47:53;2.88;;;1.65;;
27957;SDS011;15295;42.658;23.374;2022-12-01T07:50:18;3.22;;;1.08;;
27957;SDS011;15295;42.658;23.374;2022-12-01T07:52:44;4.18;;;2.50;;
27957;SDS011;15295;42.658;23.374;2022-12-01T07:55:14;3.53;;;1.20;;
27957;SDS011;15295;42.658;23.374;2022-12-01T07:57:39;2.17;;;1.42;;
27957;SDS011;15295;42.658;23.374;2022-12-01T08:00:05;7.28;;;2.63;;
27957;SDS011;15295;42.658;23.374;2022-12-01T08:02:31;4.95;;;2.42;;
27957;SDS011;15295;42.658;23.374;2022-12-01T08:04:58;7.78;;;2.78;;
27957;SDS011;15295;42.658;23.374;2022-12-01T08:07:23;7.05;;;2.65;;
27957;SDS011;15295;42.658;23.374;2022-12-01T08:09:49;3.60;;;1.50;;
27957;SDS011;15295;42.658;23.374;2022-12-01T08:12:14;10.25;;;3.85;;
27957;SDS011;15295;42.658;23.374;2022-12-01T08:14:40;9.38;;;3.65;;
27957;SDS011;15295;42.658;23.374;2022-12-01T08:17:05;10.35;;;3.75;;
27957;SDS011;15295;42.658;23.374;2022-12-01T08:19:30;30.35;;;10.05;;
27957;SDS011;15295;42.658;23.374;2022-12-01T08:21:56;29.40;;;9.50;;
27957;SDS011;15295;42.658;23.374;2022-12-01T08:24:21;13.73;;;4.85;;
27957;SDS011;15295;42.658;23.374;2022-12-01T08:26:47;15.38;;;4.50;;
27957;SDS011;15295;42.658;23.374;2022-12-01T08:29:12;16.15;;;5.57;;
27957;SDS011;15295;42.658;23.374;2022-12-01T08:31:37;5.20;;;1.60;;
27957;SDS011;15295;42.658;23.374;2022-12-01T08:34:04;8.90;;;4.15;;
27957;SDS011;15295;42.658;23.374;2022-12-01T08:36:30;8.13;;;3.03;;
27957;SDS011;15295;42.658;23.374;2022-12-01T08:38:56;9.90;;;4.55;;
27957;SDS011;15295;42.658;23.374;2022-12-01T08:41:22;19.08;;;8.32;;
27957;SDS011;15295;42.658;23.374;2022-12-01T08:43:48;8.63;;;2.85;;
27957;SDS011;15295;42.658;23.374;2022-12-01T08:46:16;8.38;;;2.78;;
27957;SDS011;15295;42.658;23.374;2022-12-01T08:48:42;8.43;;;2.40;;
27957;SDS011;15295;42.658;23.374;2022-12-01T08:51:11;3.83;;;2.03;;
27957;SDS011;15295;42.658;23.374;2022-12-01T08:53:40;7.57;;;3.15;;
27957;SDS011;15295;42.658;23.374;2022-12-01T08:56:11;6.50;;;2.47;;
27957;SDS011;15295;42.658;23.374;2022-12-01T08:58:40;6.57;;;3.13;;
27957;SDS011;15295;42.658;23.374;2022-12-01T09:01:06;6.38;;;2.03;;
27957;SDS011;15295;42.658;23.374;2022-12-01T09:03:34;7.05;;;2.63;;
27957;SDS011;15295;42.658;23.374;2022-12-01T09:06:04;7.30;;;3.28;;
27957;SDS011;15295;42.658;23.374;2022-12-01T09:08:30;3.70;;;2.15;;
27957;SDS011;15295;42.658;23.374;2022-12-01T09:10:55;5.60;;;2.75;;
27957;SDS011;15295;42.658;23.374;2022-12-01T09:13:21;5.03;;;2.70;;
27957;SDS011;15295;42.658;23.374;2022-12-01T09:15:55;5.97;;;2.33;;
27957;SDS011;15295;42.658;23.374;2022-12-01T09:18:25;3.55;;;1.73;;
27957;SDS011;15295;42.658;23.374;2022-12-01T09:20:51;4.57;;;1.60;;
27957;SDS011;15295;42.658;23.374;2022-12-01T09:23:17;3.67;;;2.00;;
27957;SDS011;15295;42.658;23.374;2022-12-01T09:25:43;2.50;;;1.30;;
27957;SDS011;15295;42.658;23.374;2022-12-01T09:28:08;2.97;;;1.40;;
27957;SDS011;15295;42.658;23.374;2022-12-01T09:30:34;3.08;;;1.20;;
27957;SDS011;15295;42.658;23.374;2022-12-01T09:33:00;2.85;;;1.15;;
27957;SDS011;15295;42.658;23.374;2022-12-01T09:35:25;2.20;;;1.10;;
27957;SDS011;15295;42.658;23.374;2022-12-01T09:37:51;1.77;;;1.10;;
27957;SDS011;15295;42.658;23.374;2022-12-01T09:40:16;6.47;;;1.52;;
27957;SDS011;15295;42.658;23.374;2022-12-01T09:42:43;3.70;;;1.50;;
27957;SDS011;15295;42.658;23.374;2022-12-01T09:45:30;2.75;;;1.20;;
27957;SDS011;15295;42.658;23.374;2022-12-01T09:47:59;2.10;;;1.23;;
27957;SDS011;15295;42.658;23.374;2022-12-01T09:50:29;3.25;;;1.33;;
27957;SDS011;15295;42.658;23.374;2022-12-01T09:52:56;3.90;;;1.17;;
27957;SDS011;15295;42.658;23.374;2022-12-01T09:55:26;3.05;;;1.58;;
27957;SDS011;15295;42.658;23.374;2022-12-01T09:57:56;2.35;;;1.45;;
27957;SDS011;15295;42.658;23.374;2022-12-01T10:00:25;2.45;;;1.25;;
27957;SDS011;15295;42.658;23.374;2022-12-01T10:05:54;2.15;;;1.25;;
27957;SDS011;15295;42.658;23.374;2022-12-01T10:08:26;3.35;;;1.48;;
27957;SDS011;15295;42.658;23.374;2022-12-01T10:10:55;5.00;;;1.45;;
27957;SDS011;15295;42.658;23.374;2022-12-01T10:13:26;5.18;;;1.33;;
27957;SDS011;15295;42.658;23.374;2022-12-01T10:15:55;4.60;;;1.33;;
27957;SDS011;15295;42.658;23.374;2022-12-01T10:24:09;4.85;;;1.40;;
27957;SDS011;15295;42.658;23.374;2022-12-01T10:32:18;1.70;;;1.10;;
27957;SDS011;15295;42.658;23.374;2022-12-01T10:34:47;1.52;;;1.20;;
27957;SDS011;15295;42.658;23.374;2022-12-01T10:37:17;3.42;;;1.63;;
27957;SDS011;15295;42.658;23.374;2022-12-01T10:39:46;3.55;;;1.60;;
27957;SDS011;15295;42.658;23.374;2022-12-01T10:50:45;2.58;;;1.50;;
27957;SDS011;15295;42.658;23.374;2022-12-01T10:55:48;2.03;;;1.42;;
27957;SDS011;15295;42.658;23.374;2022-12-01T10:58:16;4.18;;;1.10;;
27957;SDS011;15295;42.658;23.374;2022-12-01T11:00:43;5.85;;;1.40;;
27957;SDS011;15295;42.658;23.374;2022-12-01T11:03:22;1.90;;;1.13;;
27957;SDS011;15295;42.658;23.374;2022-12-01T11:05:53;2.40;;;1.33;;
27957;SDS011;15295;42.658;23.374;2022-12-01T11:08:22;4.22;;;1.80;;
27957;SDS011;15295;42.658;23.374;2022-12-01T11:11:00;3.17;;;1.20;;
27957;SDS011;15295;42.658;23.374;2022-12-01T11:13:26;3.22;;;1.90;;
27957;SDS011;15295;42.658;23.374;2022-12-01T11:15:59;2.08;;;1.20;;
27957;SDS011;15295;42.658;23.374;2022-12-01T11:21:12;3.55;;;1.90;;
27957;SDS011;15295;42.658;23.374;2022-12-01T11:23:44;3.20;;;1.50;;
27957;SDS011;15295;42.658;23.374;2022-12-01T11:31:55;2.55;;;1.20;;
27957;SDS011;15295;42.658;23.374;2022-12-01T11:34:25;3.47;;;1.50;;
27957;SDS011;15295;42.658;23.374;2022-12-01T11:36:54;4.80;;;1.70;;
27957;SDS011;15295;42.658;23.374;2022-12-01T11:39:26;2.03;;;1.20;;
27957;SDS011;15295;42.658;23.374;2022-12-01T11:41:57;2.28;;;1.20;;
27957;SDS011;15295;42.658;23.374;2022-12-01T11:44:27;2.97;;;1.60;;
27957;SDS011;15295;42.658;23.374;2022-12-01T11:46:55;3.45;;;1.50;;
27957;SDS011;15295;42.658;23.374;2022-12-01T11:49:24;3.75;;;1.10;;
27957;SDS011;15295;42.658;23.374;2022-12-01T11:51:53;4.85;;;1.50;;
27957;SDS011;15295;42.658;23.374;2022-12-01T11:56:48;1.95;;;1.20;;
27957;SDS011;15295;42.658;23.374;2022-12-01T11:59:16;2.10;;;1.20;;
27957;SDS011;15295;42.658;23.374;2022-12-01T12:17:05;2.72;;;1.55;;
27957;SDS011;15295;42.658;23.374;2022-12-01T12:30:34;4.10;;;1.40;;
27957;SDS011;15295;42.658;23.374;2022-12-01T12:33:12;4.90;;;1.65;;
27957;SDS011;15295;42.658;23.374;2022-12-01T12:41:49;3.72;;;1.40;;
27957;SDS011;15295;42.658;23.374;2022-12-01T12:52:17;4.68;;;1.58;;
27957;SDS011;15295;42.658;23.374;2022-12-01T12:54:49;2.83;;;1.35;;
27957;SDS011;15295;42.658;23.374;2022-12-01T12:59:56;5.25;;;1.50;;
27957;SDS011;15295;42.658;23.374;2022-12-01T13:10:57;4.30;;;1.83;;
27957;SDS011;15295;42.658;23.374;2022-12-01T13:16:16;4.77;;;1.57;;
27957;SDS011;15295;42.658;23.374;2022-12-01T13:18:49;3.40;;;1.30;;
27957;SDS011;15295;42.658;23.374;2022-12-01T13:21:20;2.13;;;1.33;;
27957;SDS011;15295;42.658;23.374;2022-12-01T13:23:48;3.70;;;1.20;;
27957;SDS011;15295;42.658;23.374;2022-12-01T13:26:16;5.22;;;1.60;;
27957;SDS011;15295;42.658;23.374;2022-12-01T13:28:48;2.05;;;1.48;;
27957;SDS011;15295;42.658;23.374;2022-12-01T13:31:16;5.20;;;1.48;;
27957;SDS011;15295;42.658;23.374;2022-12-01T13:36:20;9.95;;;2.83;;
27957;SDS011;15295;42.658;23.374;2022-12-01T13:46:48;5.93;;;1.90;;
27957;SDS011;15295;42.658;23.374;2022-12-01T13:49:32;8.05;;;1.90;;
27957;SDS011;15295;42.658;23.374;2022-12-01T14:00:05;3.92;;;1.60;;
27957;SDS011;15295;42.658;23.374;2022-12-01T14:02:32;6.18;;;1.80;;
27957;SDS011;15295;42.658;23.374;2022-12-01T14:07:46;3.45;;;1.77;;
27957;SDS011;15295;42.658;23.374;2022-12-01T14:10:29;4.97;;;1.70;;
27957;SDS011;15295;42.658;23.374;2022-12-01T14:12:57;3.58;;;1.35;;
27957;SDS011;15295;42.658;23.374;2022-12-01T14:15:31;2.60;;;1.15;;
27957;SDS011;15295;42.658;23.374;2022-12-01T14:17:58;3.10;;;1.38;;
27957;SDS011;15295;42.658;23.374;2022-12-01T14:20:45;4.07;;;1.20;;
27957;SDS011;15295;42.658;23.374;2022-12-01T14:25:40;3.58;;;1.67;;
27957;SDS011;15295;42.658;23.374;2022-12-01T14:28:14;4.28;;;1.70;;
27957;SDS011;15295;42.658;23.374;2022-12-01T14:39:13;5.88;;;2.78;;
27957;SDS011;15295;42.658;23.374;2022-12-01T14:41:44;4.68;;;2.30;;
27957;SDS011;15295;42.658;23.374;2022-12-01T14:44:16;5.68;;;2.20;;
27957;SDS011;15295;42.658;23.374;2022-12-01T14:53:03;5.18;;;1.50;;
27957;SDS011;15295;42.658;23.374;2022-12-01T14:55:45;4.13;;;1.27;;
27957;SDS011;15295;42.658;23.374;2022-12-01T14:58:25;2.47;;;1.40;;
27957;SDS011;15295;42.658;23.374;2022-12-01T15:00:54;5.07;;;1.77;;
27957;SDS011;15295;42.658;23.374;2022-12-01T15:06:07;2.38;;;1.40;;
27957;SDS011;15295;42.658;23.374;2022-12-01T15:08:34;3.50;;;1.95;;
27957;SDS011;15295;42.658;23.374;2022-12-01T15:11:02;3.42;;;1.55;;
27957;SDS011;15295;42.658;23.374;2022-12-01T15:13:32;5.00;;;1.73;;
27957;SDS011;15295;42.658;23.374;2022-12-01T15:16:18;5.13;;;2.25;;
27957;SDS011;15295;42.658;23.374;2022-12-01T15:18:48;2.42;;;1.60;;
27957;SDS011;15295;42.658;23.374;2022-12-01T15:21:18;2.92;;;1.80;;
27957;SDS011;15295;42.658;23.374;2022-12-01T15:26:18;3.97;;;1.70;;
27957;SDS011;15295;42.658;23.374;2022-12-01T15:28:45;4.35;;;1.33;;
27957;SDS011;15295;42.658;23.374;2022-12-01T15:31:11;3.50;;;1.90;;
27957;SDS011;15295;42.658;23.374;2022-12-01T15:33:43;2.97;;;1.60;;
27957;SDS011;15295;42.658;23.374;2022-12-01T15:36:14;2.72;;;1.45;;
27957;SDS011;15295;42.658;23.374;2022-12-01T15:38:40;3.20;;;1.60;;
27957;SDS011;15295;42.658;23.374;2022-12-01T15:41:15;2.97;;;1.50;;
27957;SDS011;15295;42.658;23.374;2022-12-01T15:43:44;6.45;;;1.42;;
27957;SDS011;15295;42.658;23.374;2022-12-01T15:46:31;2.13;;;1.17;;
27957;SDS011;15295;42.658;23.374;2022-12-01T15:49:08;4.70;;;1.60;;
27957;SDS011;15295;42.658;23.374;2022-12-01T15:51:52;4.38;;;1.90;;
27957;SDS011;15295;42.658;23.374;2022-12-01T15:54:27;4.93;;;2.20;;
27957;SDS011;15295;42.658;23.374;2022-12-01T15:56:53;2.50;;;1.00;;
27957;SDS011;15295;42.658;23.374;2022-12-01T15:59:29;3.00;;;1.40;;
27957;SDS011;15295;42.658;23.374;2022-12-01T16:02:04;2.25;;;1.38;;
27957;SDS011;15295;42.658;23.374;2022-12-01T16:04:39;7.82;;;1.88;;
27957;SDS011;15295;42.658;23.374;2022-12-01T16:07:05;7.97;;;1.50;;
27957;SDS011;15295;42.658;23.374;2022-12-01T16:09:37;2.35;;;1.30;;
27957;SDS011;15295;42.658;23.374;2022-12-01T16:12:31;2.97;;;1.52;;
27957;SDS011;15295;42.658;23.374;2022-12-01T16:17:27;2.90;;;1.52;;
27957;SDS011;15295;42.658;23.374;2022-12-01T16:22:55;5.88;;;2.28;;
27957;SDS011;15295;42.658;23.374;2022-12-01T16:25:40;3.20;;;1.48;;
27957;SDS011;15295;42.658;23.374;2022-12-01T16:28:20;3.53;;;2.03;;
27957;SDS011;15295;42.658;23.374;2022-12-01T16:30:48;4.18;;;1.80;;
27957;SDS011;15295;42.658;23.374;2022-12-01T16:33:15;4.45;;;1.38;;
27957;SDS011;15295;42.658;23.374;2022-12-01T16:35:41;10.15;;;2.05;;
27957;SDS011;15295;42.658;23.374;2022-12-01T16:38:14;5.55;;;1.85;;
27957;SDS011;15295;42.658;23.374;2022-12-01T16:40:44;2.85;;;1.65;;
27957;SDS011;15295;42.658;23.374;2022-12-01T16:43:15;4.07;;;1.67;;
27957;SDS011;15295;42.658;23.374;2022-12-01T16:45:42;3.42;;;1.90;;
27957;SDS011;15295;42.658;23.374;2022-12-01T16:48:09;4.10;;;1.67;;
27957;SDS011;15295;42.658;23.374;2022-12-01T16:50:35;4.00;;;1.20;;
27957;SDS011;15295;42.658;23.374;2022-12-01T16:53:11;6.88;;;1.52;;
27957;SDS011;15295;42.658;23.374;2022-12-01T16:58:07;2.55;;;1.50;;
27957;SDS011;15295;42.658;23.374;2022-12-01T17:00:36;4.45;;;1.45;;
27957;SDS011;15295;42.658;23.374;2022-12-01T17:03:02;4.63;;;1.88;;
27957;SDS011;15295;42.658;23.374;2022-12-01T17:05:28;4.20;;;1.50;;
27957;SDS011;15295;42.658;23.374;2022-12-01T17:07:53;2.63;;;1.42;;
27957;SDS011;15295;42.658;23.374;2022-12-01T17:10:20;3.95;;;1.80;;
27957;SDS011;15295;42.658;23.374;2022-12-01T17:12:47;4.68;;;2.28;;
27957;SDS011;15295;42.658;23.374;2022-12-01T17:15:13;3.55;;;1.52;;
27957;SDS011;15295;42.658;23.374;2022-12-01T17:17:58;5.80;;;1.80;;
27957;SDS011;15295;42.658;23.374;2022-12-01T17:20:25;3.28;;;1.70;;
27957;SDS011;15295;42.658;23.374;2022-12-01T17:22:51;2.33;;;1.30;;
27957;SDS011;15295;42.658;23.374;2022-12-01T17:25:16;4.55;;;2.38;;
27957;SDS011;15295;42.658;23.374;2022-12-01T17:27:42;2.58;;;1.80;;
27957;SDS011;15295;42.658;23.374;2022-12-01T17:30:08;4.45;;;2.00;;
27957;SDS011;15295;42.658;23.374;2022-12-01T17:32:35;4.60;;;1.80;;
27957;SDS011;15295;42.658;23.374;2022-12-01T17:35:02;3.95;;;1.73;;
27957;SDS011;15295;42.658;23.374;2022-12-01T17:37:29;3.47;;;2.05;;
27957;SDS011;15295;42.658;23.374;2022-12-01T17:39:57;3.85;;;1.90;;
27957;SDS011;15295;42.658;23.374;2022-12-01T17:42:22;4.30;;;2.40;;
27957;SDS011;15295;42.658;23.374;2022-12-01T17:44:48;5.75;;;2.50;;
27957;SDS011;15295;42.658;23.374;2022-12-01T17:47:16;5.65;;;2.20;;